createdAt,value
2018-05-13T00:00:30.179Z,99.90
2018-05-13T00:02:56.183Z,99.90
2018-05-13T00:05:22.193Z,99.90
2018-05-13T00:07:48.871Z,99.90
2018-05-13T00:10:14.850Z,99.90
2018-05-13T00:12:40.808Z,99.90
2018-05-13T00:15:06.802Z,99.90
2018-05-13T00:17:32.770Z,99.90
2018-05-13T00:19:58.724Z,99.90
2018-05-13T00:22:25.465Z,99.90
2018-05-13T00:24:51.413Z,99.90
2018-05-13T00:27:17.419Z,99.90
2018-05-13T00:29:43.383Z,99.90
2018-05-13T00:32:10.084Z,99.90
2018-05-13T00:34:36.084Z,99.90
2018-05-13T00:37:02.782Z,99.90
2018-05-13T00:39:28.790Z,99.90
2018-05-13T00:41:54.739Z,99.90
2018-05-13T00:44:20.707Z,99.90
2018-05-13T00:46:46.703Z,99.90
2018-05-13T00:49:12.647Z,99.90
2018-05-13T00:51:38.665Z,99.90
2018-05-13T00:54:17.194Z,99.90
2018-05-13T00:56:43.151Z,99.90
2018-05-13T00:59:09.131Z,99.90
2018-05-13T01:01:35.134Z,99.90
2018-05-13T01:04:01.136Z,99.90
2018-05-13T01:06:27.828Z,99.90
2018-05-13T01:08:53.793Z,99.90
2018-05-13T01:11:19.782Z,99.90
2018-05-13T01:13:45.737Z,99.90
2018-05-13T01:16:11.740Z,99.90
2018-05-13T01:18:37.733Z,99.90
2018-05-13T01:21:05.196Z,99.90
2018-05-13T01:23:31.174Z,99.90
2018-05-13T01:25:57.152Z,99.90
2018-05-13T01:28:23.146Z,99.90
2018-05-13T01:30:49.137Z,99.90
2018-05-13T01:33:15.120Z,99.90
2018-05-13T01:35:41.066Z,99.90
2018-05-13T01:38:07.087Z,99.90
2018-05-13T01:40:33.039Z,99.90
2018-05-13T01:42:59.020Z,99.90
2018-05-13T01:45:24.986Z,99.90
2018-05-13T01:47:51.721Z,99.90
2018-05-13T01:50:17.733Z,99.90
2018-05-13T01:52:43.692Z,99.90
2018-05-13T01:55:09.702Z,99.90
2018-05-13T01:57:42.715Z,99.90
2018-05-13T02:00:08.759Z,99.90
2018-05-13T02:02:34.724Z,99.90
2018-05-13T02:05:01.473Z,99.90
2018-05-13T02:07:28.198Z,99.90
2018-05-13T02:09:54.152Z,99.90
2018-05-13T02:12:20.888Z,99.90
2018-05-13T02:14:46.848Z,99.90
2018-05-13T02:17:13.604Z,99.90
2018-05-13T02:19:40.300Z,99.90
2018-05-13T02:22:06.272Z,99.90
2018-05-13T02:24:32.296Z,99.90
2018-05-13T02:26:58.312Z,99.90
2018-05-13T02:29:24.301Z,99.90
2018-05-13T02:31:50.987Z,99.90
2018-05-13T02:34:16.959Z,99.90
2018-05-13T02:36:42.927Z,99.90
2018-05-13T02:39:09.664Z,99.90
2018-05-13T02:41:35.623Z,99.90
2018-05-13T02:44:02.308Z,99.90
2018-05-13T02:46:28.335Z,99.90
2018-05-13T02:48:54.291Z,99.90
2018-05-13T02:51:20.271Z,99.90
2018-05-13T02:53:46.265Z,99.90
2018-05-13T02:56:12.267Z,99.90
2018-05-13T02:58:38.259Z,99.90
2018-05-13T03:01:04.205Z,99.90
2018-05-13T03:03:30.224Z,99.90
2018-05-13T03:05:56.179Z,99.90
2018-05-13T03:08:22.177Z,99.90
2018-05-13T03:10:48.181Z,99.90
2018-05-13T03:13:14.135Z,99.90
2018-05-13T03:15:40.122Z,99.90
2018-05-13T03:18:06.827Z,99.90
2018-05-13T03:20:32.815Z,99.90
2018-05-13T03:22:59.529Z,99.90
2018-05-13T03:25:25.552Z,99.90
2018-05-13T03:27:51.540Z,99.90
2018-05-13T03:30:18.244Z,99.90
2018-05-13T03:32:44.256Z,99.90
2018-05-13T03:35:10.213Z,99.90
2018-05-13T03:37:36.795Z,99.90
2018-05-13T03:40:02.738Z,99.90
2018-05-13T03:42:28.707Z,99.90
2018-05-13T03:44:54.681Z,99.90
2018-05-13T03:47:20.653Z,99.90
2018-05-13T03:49:46.639Z,99.90
2018-05-13T03:52:12.625Z,99.90
2018-05-13T03:54:38.581Z,99.90
2018-05-13T03:57:04.577Z,99.90
2018-05-13T03:59:30.539Z,99.90
2018-05-13T04:01:57.300Z,99.90
2018-05-13T04:04:23.997Z,99.90
2018-05-13T04:06:49.989Z,99.90
2018-05-13T04:09:29.235Z,99.90
2018-05-13T04:12:09.703Z,99.90
2018-05-13T04:14:50.343Z,99.90
2018-05-13T04:17:16.329Z,99.90
2018-05-13T04:19:43.093Z,99.90
2018-05-13T04:22:09.108Z,99.90
2018-05-13T04:24:35.087Z,99.90
2018-05-13T04:27:01.105Z,99.90
2018-05-13T04:29:27.102Z,99.90
2018-05-13T04:31:53.091Z,99.90
2018-05-13T04:34:19.081Z,99.90
2018-05-13T04:36:45.107Z,99.90
2018-05-13T04:39:11.056Z,99.90
2018-05-13T04:41:37.003Z,99.90
2018-05-13T04:44:04.000Z,99.90
2018-05-13T04:46:30.001Z,99.90
2018-05-13T04:48:56.744Z,99.90
2018-05-13T04:51:22.701Z,99.90
2018-05-13T04:53:49.429Z,99.90
2018-05-13T04:56:15.404Z,99.90
2018-05-13T04:58:41.397Z,99.90
2018-05-13T05:01:07.348Z,99.90
2018-05-13T05:03:34.079Z,99.90
2018-05-13T05:06:00.073Z,99.90
2018-05-13T05:08:26.032Z,99.90
2018-05-13T05:10:52.055Z,99.90
2018-05-13T05:13:18.033Z,99.90
2018-05-13T05:15:43.986Z,99.90
2018-05-13T05:18:10.725Z,99.90
2018-05-13T05:20:36.698Z,99.90
2018-05-13T05:23:02.683Z,99.90
2018-05-13T05:25:28.699Z,99.90
2018-05-13T05:27:54.717Z,99.90
2018-05-13T05:30:20.684Z,99.90
2018-05-13T05:32:46.685Z,99.90
2018-05-13T05:35:12.648Z,99.90
2018-05-13T05:37:38.641Z,99.90
2018-05-13T05:40:05.606Z,99.90
2018-05-13T05:42:31.579Z,99.90
2018-05-13T05:44:57.600Z,99.90
2018-05-13T05:47:23.565Z,99.90
2018-05-13T05:49:49.550Z,99.90
2018-05-13T05:52:22.505Z,99.90
2018-05-13T05:54:48.488Z,99.90
2018-05-13T05:57:14.435Z,99.90
2018-05-13T05:59:40.446Z,99.90
2018-05-13T06:02:07.204Z,99.90
2018-05-13T06:04:33.152Z,99.90
2018-05-13T06:06:59.160Z,99.90
2018-05-13T06:09:25.959Z,99.90
2018-05-13T06:11:51.992Z,99.90
2018-05-13T06:14:18.199Z,99.90
2018-05-13T06:16:44.909Z,99.90
2018-05-13T06:19:10.934Z,99.90
2018-05-13T06:21:37.495Z,99.90
2018-05-13T06:24:03.504Z,99.90
2018-05-13T06:26:29.529Z,99.90
2018-05-13T06:28:55.491Z,99.90
2018-05-13T06:31:21.461Z,99.90
2018-05-13T06:33:47.514Z,99.90
2018-05-13T06:36:14.231Z,99.90
2018-05-13T06:38:40.233Z,99.90
2018-05-13T06:41:06.228Z,99.90
2018-05-13T06:43:32.275Z,99.90
2018-05-13T06:45:58.255Z,99.90
2018-05-13T06:48:24.216Z,98.00
2018-05-13T06:50:50.208Z,97.50
2018-05-13T06:53:16.205Z,95.40
2018-05-13T06:55:42.189Z,94.10
2018-05-13T06:58:08.293Z,93.20
2018-05-13T07:00:34.999Z,92.90
2018-05-13T07:03:01.085Z,92.60
2018-05-13T07:05:27.874Z,90.10
2018-05-13T07:07:53.871Z,89.50
2018-05-13T07:10:19.963Z,90.70
2018-05-13T07:12:45.892Z,88.00
2018-05-13T07:15:11.883Z,86.70
2018-05-13T07:17:38.653Z,78.70
2018-05-13T07:20:04.639Z,78.70
2018-05-13T07:22:30.611Z,78.60
2018-05-13T07:24:57.380Z,71.50
2018-05-13T07:27:23.384Z,71.50
2018-05-13T07:29:49.415Z,71.60
2018-05-13T07:32:15.361Z,70.30
2018-05-13T07:34:41.504Z,69.90
2018-05-13T07:37:07.592Z,68.60
2018-05-13T07:39:33.560Z,69.40
2018-05-13T07:41:59.651Z,69.60
2018-05-13T07:44:25.716Z,71.20
2018-05-13T07:46:51.697Z,68.00
2018-05-13T07:49:18.459Z,69.00
2018-05-13T07:51:45.198Z,65.90
2018-05-13T07:54:11.257Z,65.70
2018-05-13T07:56:38.016Z,68.10
2018-05-13T07:59:04.746Z,66.20
2018-05-13T08:01:30.759Z,66.30
2018-05-13T08:03:56.772Z,65.60
2018-05-13T08:06:22.801Z,65.60
2018-05-13T08:08:48.792Z,67.10
2018-05-13T08:11:16.282Z,65.60
2018-05-13T08:13:43.036Z,65.10
2018-05-13T08:16:09.068Z,65.10
2018-05-13T08:18:35.811Z,63.30
2018-05-13T08:21:02.530Z,64.10
2018-05-13T08:23:28.545Z,63.90
2018-05-13T08:25:54.568Z,63.20
2018-05-13T08:28:20.572Z,64.90
2018-05-13T08:30:46.560Z,62.50
2018-05-13T08:33:12.561Z,62.50
2018-05-13T08:35:39.344Z,61.50
2018-05-13T08:38:05.376Z,61.50
2018-05-13T08:40:31.367Z,63.50
2018-05-13T08:42:57.369Z,61.60
2018-05-13T08:45:23.425Z,61.60
2018-05-13T08:47:49.378Z,62.20
2018-05-13T08:50:15.343Z,62.50
2018-05-13T08:52:42.094Z,63.00
2018-05-13T08:55:08.838Z,62.10
2018-05-13T08:57:35.591Z,63.60
2018-05-13T09:00:02.316Z,62.60
2018-05-13T09:02:28.292Z,62.60
2018-05-13T09:04:55.045Z,63.20
2018-05-13T09:07:21.812Z,61.10
2018-05-13T09:09:47.801Z,61.00
2018-05-13T09:12:13.804Z,61.00
2018-05-13T09:14:39.769Z,63.10
2018-05-13T09:17:05.872Z,62.60
2018-05-13T09:19:31.898Z,65.20
2018-05-13T09:21:57.933Z,64.00
2018-05-13T09:24:23.903Z,66.50
2018-05-13T09:26:49.944Z,65.50
2018-05-13T09:29:15.967Z,62.80
2018-05-13T09:31:42.034Z,63.20
2018-05-13T09:34:08.556Z,63.80
2018-05-13T09:36:34.532Z,59.20
2018-05-13T09:39:00.540Z,58.40
2018-05-13T09:41:26.494Z,56.90
2018-05-13T09:43:52.469Z,57.40
2018-05-13T09:46:18.477Z,55.80
2018-05-13T09:48:44.527Z,53.40
2018-05-13T09:51:11.406Z,54.40
2018-05-13T09:53:37.392Z,54.30
2018-05-13T09:56:03.375Z,52.60
2018-05-13T09:58:29.448Z,52.80
2018-05-13T10:00:55.484Z,52.40
2018-05-13T10:03:21.502Z,51.40
2018-05-13T10:05:47.517Z,51.50
2018-05-13T10:08:13.527Z,48.20
2018-05-13T10:10:39.589Z,50.80
2018-05-13T10:13:05.566Z,50.00
2018-05-13T10:15:31.564Z,48.30
2018-05-13T10:17:57.687Z,47.00
2018-05-13T10:20:23.660Z,47.40
2018-05-13T10:22:49.668Z,48.80
2018-05-13T10:25:15.748Z,44.30
2018-05-13T10:27:42.490Z,47.50
2018-05-13T10:30:09.209Z,44.60
2018-05-13T10:32:35.278Z,44.50
2018-05-13T10:35:01.240Z,44.60
2018-05-13T10:37:27.276Z,46.10
2018-05-13T10:39:53.256Z,44.60
2018-05-13T10:42:19.356Z,44.40
2018-05-13T10:44:45.386Z,45.80
2018-05-13T10:47:12.135Z,44.20
2018-05-13T10:49:38.910Z,43.30
2018-05-13T10:52:04.936Z,43.40
2018-05-13T10:54:31.702Z,43.50
2018-05-13T10:56:57.716Z,43.60
2018-05-13T10:59:24.430Z,42.90
2018-05-13T11:01:50.457Z,42.90
2018-05-13T11:04:16.518Z,44.00
2018-05-13T11:06:42.537Z,42.80
2018-05-13T11:09:08.577Z,45.10
2018-05-13T11:11:34.585Z,45.50
2018-05-13T11:14:00.547Z,45.70
2018-05-13T11:16:26.557Z,48.30
2018-05-13T11:18:52.641Z,47.60
2018-05-13T11:21:18.654Z,44.90
2018-05-13T11:23:44.649Z,43.70
2018-05-13T11:26:12.055Z,44.10
2018-05-13T11:28:38.011Z,44.10
2018-05-13T11:31:04.060Z,47.60
2018-05-13T11:33:30.188Z,44.20
2018-05-13T11:35:56.197Z,43.70
2018-05-13T11:38:22.185Z,46.00
2018-05-13T11:40:48.691Z,45.30
2018-05-13T11:43:14.708Z,46.10
2018-05-13T11:45:40.728Z,44.80
2018-05-13T11:48:07.052Z,42.60
2018-05-13T11:50:33.072Z,45.80
2018-05-13T11:52:59.085Z,44.50
2018-05-13T11:55:25.066Z,44.00
2018-05-13T11:57:51.133Z,43.70
2018-05-13T12:00:17.124Z,43.30
2018-05-13T12:02:43.221Z,41.40
2018-05-13T12:05:09.226Z,42.20
2018-05-13T12:07:35.947Z,41.60
2018-05-13T12:10:02.044Z,41.50
2018-05-13T12:12:28.048Z,41.00
2018-05-13T12:14:54.895Z,37.50
2018-05-13T12:17:20.979Z,37.50
2018-05-13T12:19:46.948Z,37.60
2018-05-13T12:22:12.986Z,36.10
2018-05-13T12:24:39.025Z,35.10
2018-05-13T12:27:05.033Z,32.50
2018-05-13T12:29:31.076Z,29.30
2018-05-13T12:31:57.048Z,29.00
2018-05-13T12:34:23.129Z,27.50
2018-05-13T12:36:49.094Z,26.40
2018-05-13T12:39:15.098Z,27.50
2018-05-13T12:41:41.071Z,25.90
2018-05-13T12:44:07.084Z,26.70
2018-05-13T12:46:33.096Z,26.20
2018-05-13T12:48:59.092Z,25.90
2018-05-13T12:51:25.113Z,25.20
2018-05-13T12:53:51.160Z,24.40
2018-05-13T12:56:17.216Z,23.00
2018-05-13T12:58:43.180Z,23.00
2018-05-13T13:01:09.220Z,22.50
2018-05-13T13:03:35.192Z,22.50
2018-05-13T13:06:01.245Z,21.60
2018-05-13T13:08:27.263Z,21.70
2018-05-13T13:10:53.306Z,21.90
2018-05-13T13:13:19.343Z,21.30
2018-05-13T13:15:46.139Z,21.70
2018-05-13T13:18:12.225Z,21.70
2018-05-13T13:20:38.265Z,22.30
2018-05-13T13:23:04.258Z,22.80
2018-05-13T13:25:31.000Z,22.10
2018-05-13T13:27:57.752Z,21.70
2018-05-13T13:30:24.561Z,22.70
2018-05-13T13:32:50.587Z,22.60
2018-05-13T13:35:16.575Z,23.10
2018-05-13T13:37:42.599Z,22.80
2018-05-13T13:40:08.620Z,22.40
2018-05-13T13:42:34.620Z,23.10
2018-05-13T13:45:00.624Z,23.80
2018-05-13T13:47:27.397Z,24.80
2018-05-13T13:49:54.111Z,25.60
2018-05-13T13:52:20.911Z,25.50
2018-05-13T13:54:46.953Z,25.40
2018-05-13T13:57:12.988Z,25.20
2018-05-13T13:59:39.014Z,24.20
2018-05-13T14:02:05.765Z,22.20
2018-05-13T14:04:32.515Z,21.90
2018-05-13T14:06:59.257Z,22.30
2018-05-13T14:09:25.321Z,22.20
2018-05-13T14:11:51.321Z,22.40
2018-05-13T14:14:17.309Z,20.80
2018-05-13T14:16:43.348Z,21.50
2018-05-13T14:19:09.368Z,21.60
2018-05-13T14:21:35.366Z,21.00
2018-05-13T14:24:01.420Z,21.70
2018-05-13T14:26:28.208Z,22.70
2018-05-13T14:28:54.233Z,22.10
2018-05-13T14:31:21.007Z,22.00
2018-05-13T14:33:47.047Z,22.00
2018-05-13T14:36:13.063Z,22.90
2018-05-13T14:38:39.085Z,24.30
2018-05-13T14:41:05.812Z,25.60
2018-05-13T14:43:31.878Z,25.60
2018-05-13T14:45:58.611Z,27.80
2018-05-13T14:48:24.627Z,27.70
2018-05-13T14:50:50.613Z,27.90
2018-05-13T14:53:17.355Z,26.90
2018-05-13T14:55:43.383Z,27.00
2018-05-13T14:58:09.403Z,26.50
2018-05-13T15:00:35.408Z,26.20
2018-05-13T15:03:02.307Z,27.60
2018-05-13T15:05:28.332Z,27.90
2018-05-13T15:07:54.324Z,27.90
2018-05-13T15:10:20.419Z,29.20
2018-05-13T15:12:46.485Z,29.50
2018-05-13T15:15:12.553Z,29.90
2018-05-13T15:17:38.548Z,30.00
2018-05-13T15:20:05.341Z,31.70
2018-05-13T15:22:33.415Z,31.80
2018-05-13T15:24:59.368Z,30.60
2018-05-13T15:27:25.370Z,31.00
2018-05-13T15:29:52.116Z,31.50
2018-05-13T15:32:18.119Z,31.40
2018-05-13T15:34:44.140Z,32.20
2018-05-13T15:37:10.158Z,31.90
2018-05-13T15:39:36.199Z,32.30
2018-05-13T15:42:02.240Z,31.80
2018-05-13T15:44:28.248Z,31.50
2018-05-13T15:46:54.976Z,31.80
2018-05-13T15:49:20.980Z,31.80
2018-05-13T15:51:46.987Z,32.60
2018-05-13T15:54:13.093Z,32.80
2018-05-13T15:56:39.110Z,33.00
2018-05-13T15:59:05.098Z,33.40
2018-05-13T16:01:31.109Z,33.80
2018-05-13T16:03:57.133Z,33.70
2018-05-13T16:06:23.105Z,33.50
2018-05-13T16:08:49.956Z,33.70
2018-05-13T16:11:15.927Z,33.70
2018-05-13T16:13:41.967Z,34.00
2018-05-13T16:16:07.978Z,33.90
2018-05-13T16:18:34.834Z,34.20
2018-05-13T16:21:00.876Z,35.00
2018-05-13T16:23:26.845Z,33.90
2018-05-13T16:25:52.807Z,33.70
2018-05-13T16:28:19.109Z,34.30
2018-05-13T16:30:45.244Z,34.20
2018-05-13T16:33:11.309Z,34.20
2018-05-13T16:35:37.294Z,34.60
2018-05-13T16:38:04.037Z,35.00
2018-05-13T16:40:30.827Z,35.30
2018-05-13T16:42:56.815Z,35.30
2018-05-13T16:45:22.837Z,35.50
2018-05-13T16:47:48.848Z,35.30
2018-05-13T16:50:14.920Z,35.70
2018-05-13T16:52:40.960Z,35.10
2018-05-13T16:55:06.944Z,35.00
2018-05-13T16:57:32.992Z,35.40
2018-05-13T16:59:59.007Z,35.20
2018-05-13T17:02:25.052Z,35.20
2018-05-13T17:04:50.979Z,35.60
2018-05-13T17:07:16.963Z,35.30
2018-05-13T17:09:43.039Z,35.40
2018-05-13T17:12:09.063Z,35.30
2018-05-13T17:14:35.102Z,35.00
2018-05-13T17:17:01.947Z,35.50
2018-05-13T17:19:28.767Z,35.50
2018-05-13T17:21:55.513Z,35.50
2018-05-13T17:24:21.526Z,35.40
2018-05-13T17:26:47.552Z,36.20
2018-05-13T17:29:14.353Z,37.10
2018-05-13T17:31:40.363Z,37.10
2018-05-13T17:34:06.423Z,36.80
2018-05-13T17:36:32.377Z,36.60
2018-05-13T17:38:58.371Z,36.80
2018-05-13T17:41:24.364Z,37.10
2018-05-13T17:43:50.372Z,37.90
2018-05-13T17:46:16.356Z,38.10
2018-05-13T17:48:43.152Z,38.20
2018-05-13T17:51:16.056Z,38.20
2018-05-13T17:53:42.130Z,38.90
2018-05-13T17:56:08.096Z,39.10
2018-05-13T17:58:34.820Z,38.80
2018-05-13T18:01:00.828Z,38.80
2018-05-13T18:03:26.808Z,39.00
2018-05-13T18:05:53.580Z,40.40
2018-05-13T18:08:19.563Z,39.60
2018-05-13T18:10:45.619Z,40.10
2018-05-13T18:13:11.610Z,39.60
2018-05-13T18:15:37.624Z,40.30
2018-05-13T18:18:04.357Z,40.60
2018-05-13T18:20:30.327Z,40.50
2018-05-13T18:22:56.369Z,40.80
2018-05-13T18:25:22.352Z,41.30
2018-05-13T18:27:48.365Z,41.10
2018-05-13T18:30:14.380Z,41.50
2018-05-13T18:32:40.433Z,41.70
2018-05-13T18:35:06.388Z,42.40
2018-05-13T18:37:32.383Z,42.20
2018-05-13T18:39:58.432Z,42.10
2018-05-13T18:42:24.407Z,42.30
2018-05-13T18:44:50.664Z,42.70
2018-05-13T18:47:16.644Z,42.80
2018-05-13T18:49:42.696Z,42.70
2018-05-13T18:52:08.677Z,42.80
2018-05-13T18:54:34.679Z,43.20
2018-05-13T18:57:00.715Z,42.90
2018-05-13T18:59:26.698Z,43.10
2018-05-13T19:01:52.703Z,43.30
2018-05-13T19:04:18.676Z,43.80
2018-05-13T19:06:45.450Z,43.70
2018-05-13T19:09:11.468Z,43.70
2018-05-13T19:11:38.172Z,44.00
2018-05-13T19:14:04.189Z,44.00
2018-05-13T19:16:30.188Z,44.30
2018-05-13T19:18:56.927Z,45.40
2018-05-13T19:21:22.957Z,44.50
2018-05-13T19:23:48.956Z,44.80
2018-05-13T19:26:15.030Z,45.10
2018-05-13T19:28:41.081Z,45.20
2018-05-13T19:31:07.104Z,45.20
2018-05-13T19:33:33.178Z,45.70
2018-05-13T19:35:59.883Z,45.60
2018-05-13T19:38:25.876Z,45.60
2018-05-13T19:40:51.905Z,45.90
2018-05-13T19:43:18.739Z,46.50
2018-05-13T19:45:44.853Z,46.50
2018-05-13T19:48:10.898Z,46.40
2018-05-13T19:50:36.867Z,46.60
2018-05-13T19:53:03.663Z,47.00
2018-05-13T19:55:29.674Z,46.90
2018-05-13T19:57:57.852Z,46.80
2018-05-13T20:00:24.597Z,46.80
2018-05-13T20:02:51.716Z,47.10
2018-05-13T20:05:17.518Z,46.90
2018-05-13T20:07:43.556Z,47.30
2018-05-13T20:10:10.065Z,47.50
2018-05-13T20:12:36.064Z,47.70
2018-05-13T20:15:02.068Z,47.70
2018-05-13T20:17:28.042Z,48.50
2018-05-13T20:19:54.046Z,48.10
2018-05-13T20:22:20.097Z,48.40
2018-05-13T20:24:46.150Z,48.70
2018-05-13T20:27:12.140Z,49.00
2018-05-13T20:29:38.956Z,48.60
2018-05-13T20:32:04.928Z,48.60
2018-05-13T20:34:31.682Z,49.40
2018-05-13T20:36:58.411Z,49.50
2018-05-13T20:39:24.404Z,49.50
2018-05-13T20:41:50.371Z,49.40
2018-05-13T20:44:16.415Z,49.80
2018-05-13T20:46:42.398Z,49.60
2018-05-13T20:49:08.437Z,50.20
2018-05-13T20:51:34.422Z,50.30
2018-05-13T20:54:00.413Z,50.30
2018-05-13T20:56:26.430Z,50.50
2018-05-13T20:58:53.184Z,51.10
2018-05-13T21:01:19.929Z,51.50
2018-05-13T21:03:46.690Z,51.50
2018-05-13T21:06:13.502Z,51.20
2018-05-13T21:08:39.473Z,51.20
2018-05-13T21:11:06.275Z,52.60
2018-05-13T21:13:32.255Z,51.80
2018-05-13T21:15:58.296Z,51.50
2018-05-13T21:18:24.272Z,51.90
2018-05-13T21:20:50.237Z,52.10
2018-05-13T21:23:16.247Z,52.40
2018-05-13T21:25:42.273Z,52.40
2018-05-13T21:28:08.235Z,52.70
2018-05-13T21:30:34.392Z,53.50
2018-05-13T21:33:01.129Z,54.10
2018-05-13T21:35:27.152Z,54.40
2018-05-13T21:37:53.176Z,54.00
2018-05-13T21:40:19.186Z,54.10
2018-05-13T21:42:46.026Z,54.00
2018-05-13T21:45:12.061Z,53.90
2018-05-13T21:47:38.024Z,55.00
2018-05-13T21:50:04.733Z,56.60
2018-05-13T21:52:31.477Z,56.20
2018-05-13T21:54:57.445Z,56.60
2018-05-13T21:57:23.456Z,56.50
2018-05-13T21:59:49.450Z,56.60
2018-05-13T22:02:15.499Z,56.60
2018-05-13T22:04:53.697Z,56.80
2018-05-13T22:07:20.496Z,57.00
2018-05-13T22:09:47.219Z,57.10
2018-05-13T22:12:14.017Z,57.00
2018-05-13T22:14:40.016Z,57.00
2018-05-13T22:17:06.004Z,57.20
2018-05-13T22:19:32.007Z,57.30
2018-05-13T22:21:58.015Z,56.90
2018-05-13T22:24:24.740Z,57.40
2018-05-13T22:26:50.720Z,57.40
2018-05-13T22:29:16.818Z,56.80
2018-05-13T22:31:44.589Z,57.30
2018-05-13T22:34:11.372Z,58.20
2018-05-13T22:36:38.071Z,58.60
2018-05-13T22:39:04.100Z,58.60
2018-05-13T22:41:30.140Z,58.70
2018-05-13T22:43:56.110Z,58.60
2018-05-13T22:46:22.115Z,58.20
2018-05-13T22:48:48.154Z,59.60
2018-05-13T22:51:14.163Z,59.80
2018-05-13T22:53:40.124Z,59.20
2018-05-13T22:56:06.140Z,59.70
2018-05-13T22:58:32.136Z,59.30
2018-05-13T23:00:58.160Z,58.90
2018-05-13T23:03:24.900Z,61.50
2018-05-13T23:05:50.873Z,61.60
2018-05-13T23:08:17.652Z,62.30
2018-05-13T23:10:43.662Z,61.10
2018-05-13T23:13:09.631Z,60.10
2018-05-13T23:15:35.669Z,62.70
2018-05-13T23:18:01.648Z,61.50
2018-05-13T23:20:27.672Z,62.20
2018-05-13T23:22:53.628Z,63.30
2018-05-13T23:25:19.632Z,63.30
2018-05-13T23:27:45.644Z,66.40
2018-05-13T23:30:11.712Z,65.70
2018-05-13T23:32:37.729Z,67.50
2018-05-13T23:35:03.724Z,67.30
2018-05-13T23:37:29.740Z,66.70
2018-05-13T23:39:55.769Z,67.30
2018-05-13T23:42:21.743Z,68.80
2018-05-13T23:44:47.733Z,70.60
2018-05-13T23:47:13.786Z,68.80
2018-05-13T23:49:39.769Z,68.80
2018-05-13T23:52:06.476Z,69.20
2018-05-13T23:54:32.487Z,69.20
2018-05-13T23:56:58.460Z,69.90
2018-05-13T23:59:24.452Z,70.60
